Flight Track Log - Related Links

Times and Time Zones

All times are in EDT time to prevent confusion due to time zone crossing. See the AAY875 flight status page for this flight to view local times or setup timezone preferences in your user account.

Time Position Orientation Groundspeed Altitude Reporting Facility
EDT Latitude Longitude Course Direction KTS MPH feet Rate Location/Type
Sat 05:09:38 PM 44.8367 -68.8672 275° West 172 198 2,200  Level Boston Center
Sat 05:10:39 PM 44.8417 -68.9483 275° West 217 250 4,500 2,754 Climbing Boston Center
Sat 05:11:40 PM 44.8328 -69.0425 262° West 236 272 7,800 3,344 Climbing Boston Center
Sat 05:12:41 PM 44.7972 -69.1272 239° Southwest 249 287 11,300 3,148 Climbing Boston Center
Sat 05:13:42 PM 44.7347 -69.1878 215° Southwest 271 312 14,200 2,146 Climbing Boston Center
Sat 05:14:44 PM 44.6822 -69.2678 227° Southwest 286 329 15,700 1,415 Climbing Boston Center
Sat 05:15:45 PM 44.6328 -69.3728 237° Southwest 327 376 17,100 1,426 Climbing Boston Center
Sat 05:16:46 PM 44.5575 -69.4719 223° Southwest 365 420 18,600 1,672 Climbing Boston Center
Sat 05:17:47 PM 44.4797 -69.5767 224° Southwest 381 438 20,500 1,967 Climbing Boston Center
Sat 05:18:48 PM 44.4000 -69.6833 224° Southwest 388 447 22,600 1,869 Climbing Boston Center
Sat 05:19:49 PM 44.3200 -69.7919 224° Southwest 396 456 24,300 1,756 Climbing Boston Center
Sat 05:20:51 PM 44.2386 -69.8994 223° Southwest 397 457 26,200 1,707 Climbing Boston Center
Sat 05:21:52 PM 44.1572 -70.0069 223° Southwest 398 458 27,800 1,377 Climbing Boston Center
Sat 05:22:53 PM 44.0756 -70.1147 223° Southwest 402 463 29,000 717 Climbing Boston Center
Sat 05:24:56 PM 43.9097 -70.3339 219° Southwest 413 475 30,000 333 Climbing Boston Center
Sat 05:27:59 PM 43.6369 -70.6900 223° Southwest 410 472 30,700 441 Climbing Boston Center
Sat 05:29:01 PM 43.5522 -70.7983 223° Southwest 410 472 31,800 634 Climbing Boston Center
Sat 05:30:02 PM 43.4683 -70.9183 226° Southwest 416 479 32,000 98 Climbing Boston Center
Sat 05:31:03 PM 43.3772 -71.0236 220° Southwest 420 483 32,000  Level Boston Center
Sat 05:32:04 PM 43.2911 -71.1328 223° Southwest 420 483 32,000  Level Boston Center
Sat 05:37:11 PM 42.8547 -71.6897 223° Southwest 430 495 32,000  Level Boston Center
Sat 05:38:12 PM 42.7650 -71.7969 221° Southwest 430 495 32,000  Level Boston Center
Sat 05:41:15 PM 42.4783 -72.1511 214° Southwest 434 499 32,000  Level Boston Center
Sat 05:42:00 PM 42.4517 -72.1478 223° Southwest  Level FlightAware Approximate
Sat 05:42:17 PM 42.3878 -72.2614 222° Southwest 436 502 32,000  Level Boston Center
Sat 05:45:20 PM 42.1161 -72.5900 219° Southwest 435 501 32,000  Level Boston Center
Sat 05:48:24 PM 41.8442 -72.9175 220° Southwest 435 501 32,000  Level Boston Center
Sat 05:52:28 PM 41.4647 -73.3672 236° Southwest 442 509 32,000  Level Boston Center
Sat 05:53:29 PM 41.3725 -73.4736 221° Southwest 442 509 32,000  Level Boston Center
Sat 05:54:31 PM 41.2814 -73.5817 222° Southwest 442 509 32,000  Level Boston Center
Sat 05:55:32 PM 41.2081 -73.7022 231° Southwest 426 490 32,000  Level Boston Center
Sat 05:56:33 PM 41.1369 -73.8228 232° Southwest 421 484 32,000  Level Boston Center
Sat 05:57:00 PM 41.1402 -73.8030 236° Southwest  Level FlightAware Approximate
Sat 05:57:34 PM 41.0650 -73.9436 232° Southwest 420 483 32,000  Level Boston Center
Sat 05:58:35 PM 40.9931 -74.0628 231° Southwest 419 482 32,000  Level Boston Center
Sat 05:59:37 PM 40.9064 -74.2069 232° Southwest 418 481 32,000  Level Boston Center
Sat 06:00:38 PM 40.8350 -74.3253 231° Southwest 417 480 32,000  Level Boston Center
Sat 06:01:39 PM 40.7661 -74.4414 232° Southwest 416 479 32,000 -50 Level Boston Center
Sat 06:02:38 PM 40.6903 -74.5644 231° Southwest 423 487 31,900  Descending New York Center
Sat 06:03:38 PM 40.6197 -74.6836 232° Southwest 423 487 32,000  Climbing New York Center
Sat 06:04:38 PM 40.5428 -74.7992 229° Southwest 423 487 31,900  Descending New York Center
Sat 06:05:38 PM 40.4642 -74.9092 227° Southwest 429 494 32,000  Climbing New York Center
Sat 06:06:38 PM 40.3850 -75.0244 228° Southwest 429 494 31,900  Descending New York Center
Sat 06:07:38 PM 40.3058 -75.1364 227° Southwest 429 494 32,000 50 Climbing New York Center
Sat 06:08:38 PM 40.2267 -75.2483 227° Southwest 429 494 32,000 -50 Level New York Center
Sat 06:09:38 PM 40.1450 -75.3625 227° Southwest 429 494 31,900  Descending New York Center
Sat 06:10:38 PM 40.0656 -75.4742 227° Southwest 429 494 32,000 50 Climbing New York Center
Sat 06:11:38 PM 39.9906 -75.5772 226° Southwest 429 494 32,000  Level New York Center
Sat 06:12:38 PM 39.9089 -75.6908 227° Southwest 429 494 32,000  Level New York Center
Sat 06:13:38 PM 39.8350 -75.8072 230° Southwest 423 487 32,000  Level New York Center
Sat 06:14:38 PM 39.7589 -75.9289 231° Southwest 429 494 32,000  Level New York Center
Sat 06:15:38 PM 39.6869 -76.0478 232° Southwest 429 494 32,000  Level New York Center
Sat 06:16:31 PM 39.6239 -76.1378 228° Southwest 422 486 32,000  Level Washington Center
Sat 06:17:32 PM 39.5325 -76.2789 230° Southwest 423 487 32,000  Level Washington Center
Sat 06:18:36 PM 39.4569 -76.3961 230° Southwest 424 488 32,000  Level Washington Center
Sat 06:19:39 PM 39.3819 -76.5139 231° Southwest 424 488 32,000  Level Washington Center
Sat 06:20:39 PM 39.3136 -76.6250 232° Southwest 422 486 32,000  Level Washington Center
Sat 06:21:43 PM 39.2233 -76.7642 230° Southwest 421 484 32,000  Level Washington Center
Sat 06:22:43 PM 39.1481 -76.8811 230° Southwest 422 486 32,000  Level Washington Center
Sat 06:23:47 PM 39.0747 -76.9958 231° Southwest 420 483 32,000  Level Washington Center
Sat 06:24:47 PM 38.9897 -77.1014 224° Southwest 426 490 32,000  Level Washington Center
Sat 06:25:52 PM 38.8983 -77.2008 220° Southwest 427 491 32,000  Level Washington Center
Sat 06:26:53 PM 38.8081 -77.2983 220° Southwest 424 488 32,000  Level Washington Center
Sat 06:27:53 PM 38.7183 -77.3972 221° Southwest 423 487 32,000  Level Washington Center
Sat 06:28:57 PM 38.6089 -77.5150 220° Southwest 423 487 32,000  Level Washington Center
Sat 06:29:58 PM 38.5183 -77.6133 220° Southwest 425 489 32,000  Level Washington Center
Sat 06:31:02 PM 38.4278 -77.7108 220° Southwest 423 487 32,000  Level Washington Center
Sat 06:32:02 PM 38.3381 -77.8083 220° Southwest 423 487 32,000  Level Washington Center
Sat 06:33:06 PM 38.2464 -77.9050 220° Southwest 423 487 32,000  Level Washington Center
Sat 06:34:06 PM 38.1575 -78.0014 220° Southwest 423 487 32,000  Level Washington Center
Sat 06:35:10 PM 38.0672 -78.0967 220° Southwest 423 487 32,000  Level Washington Center
Sat 06:36:11 PM 37.9614 -78.2033 218° Southwest 425 489 32,000  Level Washington Center
Sat 06:37:15 PM 37.8692 -78.2906 217° Southwest 425 489 32,000  Level Washington Center
Sat 06:38:16 PM 37.7772 -78.3783 217° Southwest 425 489 32,000  Level Washington Center
Sat 06:39:16 PM 37.6689 -78.4831 217° Southwest 419 482 32,000  Level Washington Center
Sat 06:40:20 PM 37.5764 -78.5711 217° Southwest 424 488 32,000  Level Washington Center
Sat 06:41:22 PM 37.4833 -78.6567 216° Southwest 424 488 32,000  Level Washington Center
Sat 06:42:25 PM 37.3728 -78.7617 217° Southwest 424 488 32,000  Level Washington Center
Sat 06:43:26 PM 37.2789 -78.8494 217° Southwest 425 489 32,000  Level Washington Center
Sat 06:44:27 PM 37.1861 -78.9361 217° Southwest 426 490 32,000  Level Washington Center
Sat 06:45:31 PM 37.0742 -79.0403 217° Southwest 426 490 32,000  Level Washington Center
Sat 06:46:32 PM 36.9806 -79.1256 216° Southwest 426 490 32,000  Level Washington Center
Sat 06:47:35 PM 36.8853 -79.2133 216° Southwest 431 496 32,000  Level Washington Center
Sat 06:48:36 PM 36.7903 -79.3017 217° Southwest 433 498 32,000  Level Washington Center
Sat 06:49:39 PM 36.6742 -79.4078 216° Southwest 439 505 32,000  Level Washington Center
Sat 06:50:40 PM 36.5781 -79.4983 217° Southwest 442 509 32,000  Level Washington Center
Sat 06:51:44 PM 36.4833 -79.5831 216° Southwest 433 498 32,000  Level Washington Center
Sat 06:52:32 PM 36.3831 -79.6675 214° Southwest 445 512 32,000  Level Atlanta Center
Sat 06:53:32 PM 36.2861 -79.7578 217° Southwest 440 506 32,000  Level Atlanta Center
Sat 06:54:32 PM 36.1889 -79.8428 215° Southwest 440 506 32,000  Level Atlanta Center
Sat 06:55:32 PM 36.1019 -79.9217 216° Southwest 440 506 32,000  Level Atlanta Center
Sat 06:56:32 PM 35.9981 -79.9964 210° Southwest 440 506 32,000  Level Atlanta Center
Sat 06:57:32 PM 35.8853 -80.0583 204° Southwest 440 506 32,000  Level Atlanta Center
Sat 06:58:32 PM 35.7722 -80.1125 201° Southwest 440 506 32,000  Level Atlanta Center
Sat 06:59:32 PM 35.6572 -80.1717 203° Southwest 445 512 32,000  Level Atlanta Center
Sat 07:00:32 PM 35.5319 -80.2339 202° Southwest 450 518 32,000  Level Atlanta Center
Sat 07:01:32 PM 35.4169 -80.2928 203° Southwest 450 518 32,000  Level Atlanta Center
Sat 07:02:32 PM 35.2997 -80.3514 202° Southwest 450 518 32,000  Level Atlanta Center
Sat 07:03:32 PM 35.1867 -80.4072 202° Southwest 450 518 32,000  Level Atlanta Center
Sat 07:04:32 PM 35.0736 -80.4631 202° Southwest 450 518 32,000  Level Atlanta Center
Sat 07:05:39 PM 34.9572 -80.5192 202° Southwest 446 513 32,000  Level Jacksonville Center
Sat 07:06:39 PM 34.8436 -80.5756 202° Southwest 446 513 32,000  Level Jacksonville Center
Sat 07:07:39 PM 34.7236 -80.6344 202° Southwest 444 511 32,000  Level Jacksonville Center
Sat 07:08:39 PM 34.6328 -80.6797 202° Southwest 439 505 32,000  Level Jacksonville Center
Sat 07:09:39 PM 34.5025 -80.7433 202° Southwest 449 517 32,000  Level Jacksonville Center
Sat 07:10:39 PM 34.3886 -80.7917 199° South 449 517 32,000  Level Jacksonville Center
Sat 07:11:39 PM 34.2667 -80.8600 205° Southwest 454 522 32,000  Level Jacksonville Center
Sat 07:12:39 PM 34.1506 -80.9178 202° Southwest 448 516 32,000  Level Jacksonville Center
Sat 07:13:39 PM 34.0367 -80.9706 201° Southwest 448 516 32,000  Level Jacksonville Center
Sat 07:14:39 PM 33.9186 -81.0281 202° Southwest 448 516 32,000  Level Jacksonville Center
Sat 07:15:39 PM 33.8128 -81.0753 200° South 448 516 32,000  Level Jacksonville Center
Sat 07:16:39 PM 33.6864 -81.1403 203° Southwest 448 516 32,000  Level Jacksonville Center
Sat 07:17:39 PM 33.5725 -81.1975 203° Southwest 454 522 32,000  Level Jacksonville Center
Sat 07:18:39 PM 33.4586 -81.2544 203° Southwest 454 522 32,000 -50 Level Jacksonville Center
Sat 07:19:39 PM 33.3444 -81.3111 203° Southwest 449 517 31,900  Descending Jacksonville Center
Sat 07:20:39 PM 33.2406 -81.3603 202° Southwest 449 517 32,000 50 Climbing Jacksonville Center
Sat 07:21:39 PM 33.1267 -81.4167 203° Southwest 449 517 32,000  Level Jacksonville Center
Sat 07:22:39 PM 33.0103 -81.4731 202° Southwest 449 517 32,000  Level Jacksonville Center
Sat 07:23:39 PM 32.8981 -81.5269 202° Southwest 449 517 32,000  Level Jacksonville Center
Sat 07:24:39 PM 32.7819 -81.5831 202° Southwest 449 517 32,000  Level Jacksonville Center
Sat 07:25:39 PM 32.6675 -81.6389 202° Southwest 449 517 32,000  Level Jacksonville Center
Sat 07:26:39 PM 32.5431 -81.6997 202° Southwest 449 517 32,000  Level Jacksonville Center
Sat 07:27:39 PM 32.4244 -81.7531 201° Southwest 455 524 32,000  Level Jacksonville Center
Sat 07:28:39 PM 32.3119 -81.7767 190° South 450 518 32,000  Level Jacksonville Center
Sat 07:29:39 PM 32.1764 -81.8028 189° South 455 524 32,000  Level Jacksonville Center
Sat 07:30:39 PM 32.0639 -81.8286 191° South 455 524 32,000  Level Jacksonville Center
Sat 07:31:39 PM 31.9286 -81.8594 191° South 455 524 32,000  Level Jacksonville Center
Sat 07:32:39 PM 31.8033 -81.8853 190° South 460 529 32,000  Level Jacksonville Center
Sat 07:33:39 PM 31.6950 -81.9086 190° South 460 529 32,000  Level Jacksonville Center
Sat 07:34:39 PM 31.5575 -81.9392 191° South 455 524 32,000  Level Jacksonville Center
Sat 07:35:39 PM 31.4492 -81.9647 191° South 449 517 32,000  Level Jacksonville Center
Sat 07:36:39 PM 31.3114 -81.9928 190° South 449 517 32,000 -50 Level Jacksonville Center
Sat 07:37:39 PM 31.1906 -82.0231 192° South 449 517 31,900 -50 Descending Jacksonville Center
Sat 07:38:39 PM 31.0675 -82.0461 189° South 449 517 31,900 50 Level Jacksonville Center
Sat 07:39:39 PM 30.9444 -82.0739 191° South 449 517 32,000  Climbing Jacksonville Center
Sat 07:40:39 PM 30.8214 -82.0992 190° South 449 517 31,900  Descending Jacksonville Center
Sat 07:41:39 PM 30.6986 -82.1267 191° South 454 522 32,000 50 Climbing Jacksonville Center
Sat 07:42:39 PM 30.5733 -82.1542 191° South 454 522 32,000  Level Jacksonville Center
Sat 07:43:39 PM 30.4503 -82.1744 188° South 454 522 32,000  Level Jacksonville Center
Sat 07:44:39 PM 30.3272 -82.2019 191° South 454 522 32,000 -50 Level Jacksonville Center
Sat 07:45:39 PM 30.2064 -82.2267 190° South 447 514 31,900  Descending Jacksonville Center
Sat 07:46:39 PM 30.0853 -82.2517 190° South 453 521 32,000 50 Climbing Jacksonville Center
Sat 07:47:39 PM 29.9728 -82.2789 192° South 446 513 32,000 -550 Level Jacksonville Center
Sat 07:48:39 PM 29.8517 -82.3058 191° South 446 513 30,900 -1,500 Descending Jacksonville Center
Sat 07:49:39 PM 29.7161 -82.3306 189° South 446 513 29,000 -1,950 Descending Jacksonville Center
Sat 07:50:39 PM 29.5889 -82.3553 190° South 451 519 27,000 -1,550 Descending Jacksonville Center
Sat 07:51:39 PM 29.4617 -82.3439 176° South 457 526 25,900 -1,450 Descending Jacksonville Center
Sat 07:52:39 PM 29.3342 -82.3281 174° South 457 526 24,100 -2,100 Descending Jacksonville Center
Sat 07:53:39 PM 29.2131 -82.3144 174° South 457 526 21,700 -2,450 Descending Jacksonville Center
Sat 07:54:39 PM 29.0919 -82.3008 174° South 450 518 19,200 -2,300 Descending Jacksonville Center
Sat 07:55:39 PM 28.9792 -82.2872 174° South 430 495 17,100 -2,200 Descending Jacksonville Center
Sat 07:56:39 PM 28.8789 -82.2761 174° South 417 480 14,800 -1,709 Descending Jacksonville Center
Sat 07:58:31 PM 28.6667 -82.2500 174° South 382 440 12,200 -1,256 Descending Tampa TRACON
Sat 07:59:31 PM 28.5667 -82.2500 180° South 383 441 11,200 -950 Descending Tampa TRACON
Sat 08:00:31 PM 28.4833 -82.3333 221° Southwest 373 429 10,300 -600 Descending Tampa TRACON
Sat 08:01:31 PM 28.4333 -82.4333 240° Southwest 354 407 10,000 -150 Descending Tampa TRACON
Sat 08:02:31 PM 28.3833 -82.5000 230° Southwest 317 365 10,000  Level Tampa TRACON
Sat 08:03:31 PM 28.3167 -82.5833 228° Southwest 317 365 10,000 -50 Level Tampa TRACON
Sat 08:04:31 PM 28.2667 -82.6667 236° Southwest 319 367 9,900 -737 Descending Tampa TRACON
Sat 08:05:25 PM 28.2167 -82.7333 230° Southwest 283 326 8,600 -1,500 Descending Tampa TRACON
Sat 08:06:31 PM 28.1500 -82.7833 213° Southwest 273 314 6,900 -1,667 Descending Tampa TRACON
Sat 08:07:31 PM 28.0833 -82.8000 192° South 271 312 5,100 -1,895 Descending Tampa TRACON
Sat 08:08:25 PM 28.0167 -82.8000 180° South 266 306 3,300 -1,316 Descending Tampa TRACON
Sat 08:09:25 PM 27.9500 -82.8000 180° South 239 275 2,600 -368 Descending Tampa TRACON
Sat 08:10:19 PM 27.8833 -82.7833 168° South 203 234 2,600 -450 Level Tampa TRACON
Sat 08:11:25 PM 27.8500 -82.7667 156° South 181 208 1,700 -661 Descending Tampa TRACON
Sat 08:12:26 PM 27.8500 -82.7167 90° East 150 173 1,200 -550 Descending Tampa TRACON
Sat 08:13:25 PM 27.8667 -82.6833 61° Northeast 148 170 600 -610 Descending Tampa TRACON
Sat 08:15:00 PM 27.9100 -82.6875 128° Southeast  Level Estimated
Sat 08:22:00 PM 27.9100 -82.6875 310° West  Level Estimated
Sat 08:23:00 PM 27.9100 -82.6875 133° Southeast  Level Estimated

Login

Don't have an account? Register now (free) for customized features, flight alerts, and more!